createdAt,value
2022-10-28T00:03:23.478Z,15.20
2022-10-28T00:08:26.990Z,15.20
2022-10-28T00:13:30.564Z,15.10
2022-10-28T00:18:35.481Z,15.10
2022-10-28T00:23:39.140Z,15.10
2022-10-28T00:28:44.133Z,15.10
2022-10-28T00:33:49.041Z,15.10
2022-10-28T00:38:54.393Z,15.00
2022-10-28T00:43:59.927Z,14.90
2022-10-28T00:49:07.582Z,14.80
2022-10-28T00:54:12.334Z,14.70
2022-10-28T00:59:19.993Z,14.70
2022-10-28T01:04:25.041Z,14.70
2022-10-28T01:09:28.394Z,14.70
2022-10-28T01:14:47.812Z,14.70
2022-10-28T01:20:36.215Z,14.70
2022-10-28T01:26:16.857Z,14.70
2022-10-28T01:31:39.930Z,14.60
2022-10-28T01:36:55.888Z,14.60
2022-10-28T01:42:05.061Z,14.60
2022-10-28T01:47:14.055Z,14.60
2022-10-28T01:52:22.301Z,14.60
2022-10-28T01:57:29.102Z,14.60
2022-10-28T02:02:37.196Z,14.60
2022-10-28T02:07:40.657Z,14.50
2022-10-28T02:12:48.950Z,14.50
2022-10-28T02:18:07.685Z,14.50
2022-10-28T02:23:21.605Z,14.50
2022-10-28T02:28:33.510Z,14.50
2022-10-28T02:33:41.900Z,14.40
2022-10-28T02:38:48.960Z,14.40
2022-10-28T02:44:00.360Z,14.50
2022-10-28T02:49:09.067Z,14.50
2022-10-28T02:54:15.486Z,14.40
2022-10-28T02:59:18.826Z,14.40
2022-10-28T03:04:23.658Z,14.30
2022-10-28T03:09:27.258Z,14.30
2022-10-28T03:14:30.527Z,14.30
2022-10-28T03:19:35.334Z,14.30
2022-10-28T03:24:38.874Z,14.30
2022-10-28T03:29:45.695Z,14.30
2022-10-28T03:34:50.958Z,14.30
2022-10-28T03:39:54.385Z,14.20
2022-10-28T03:44:57.864Z,14.30
2022-10-28T03:50:02.890Z,14.20
2022-10-28T03:55:06.978Z,14.20
2022-10-28T04:00:11.374Z,14.30
2022-10-28T04:05:16.353Z,14.20
2022-10-28T04:10:19.674Z,14.30
2022-10-28T04:15:23.182Z,14.20
2022-10-28T04:20:28.372Z,14.30
2022-10-28T04:25:31.668Z,14.20
2022-10-28T04:30:35.132Z,14.20
2022-10-28T04:35:42.862Z,14.20
2022-10-28T04:40:48.376Z,14.20
2022-10-28T04:45:51.639Z,14.20
2022-10-28T04:50:58.622Z,14.20
2022-10-28T04:56:02.461Z,14.10
2022-10-28T05:01:09.354Z,14.10
2022-10-28T05:06:14.416Z,14.10
2022-10-28T05:11:17.871Z,14.10
2022-10-28T05:16:21.233Z,14.00
2022-10-28T05:21:26.076Z,14.00
2022-10-28T05:26:29.644Z,13.90
2022-10-28T05:31:33.408Z,13.80
2022-10-28T05:36:38.635Z,13.70
2022-10-28T05:41:41.986Z,13.70
2022-10-28T05:46:45.331Z,13.70
2022-10-28T05:51:50.881Z,13.70
2022-10-28T05:56:54.497Z,13.70
2022-10-28T06:01:58.160Z,13.70
2022-10-28T06:07:02.983Z,13.70
2022-10-28T06:12:06.863Z,13.80
2022-10-28T06:17:10.480Z,13.80
2022-10-28T06:22:15.135Z,13.80
2022-10-28T06:27:19.119Z,13.80
2022-10-28T06:32:22.685Z,13.90
2022-10-28T06:37:27.378Z,13.90
2022-10-28T06:42:30.728Z,13.90
2022-10-28T06:47:39.068Z,13.90
2022-10-28T06:57:55.345Z,14.00
2022-10-28T07:03:00.239Z,14.10
2022-10-28T07:08:05.740Z,14.20
2022-10-28T07:13:09.259Z,14.40
2022-10-28T07:18:13.038Z,14.50
2022-10-28T07:23:17.918Z,14.60
2022-10-28T07:28:21.611Z,14.70
2022-10-28T07:33:24.919Z,14.80
2022-10-28T07:38:32.147Z,14.90
2022-10-28T08:39:05.728Z,14.20
2022-10-28T08:44:50.975Z,15.50
2022-10-28T08:49:58.521Z,15.90
2022-10-28T08:55:07.550Z,16.20
2022-10-28T09:00:21.218Z,16.50
2022-10-28T09:05:26.194Z,16.70
2022-10-28T09:10:57.960Z,16.90
2022-10-28T09:16:08.567Z,17.10
2022-10-28T09:21:19.479Z,17.30
2022-10-28T09:26:41.641Z,17.40
2022-10-28T09:31:49.348Z,17.60
2022-10-28T09:37:16.171Z,17.80
2022-10-28T09:42:28.894Z,17.90
2022-10-28T09:47:36.958Z,18.00
2022-10-28T09:52:51.006Z,18.20
2022-10-28T09:58:14.973Z,18.30
2022-10-28T10:03:18.975Z,18.40
2022-10-28T10:08:23.779Z,18.50
2022-10-28T10:13:30.561Z,18.70
2022-10-28T10:18:34.301Z,18.80
2022-10-28T10:28:47.791Z,19.10
2022-10-28T10:33:52.982Z,19.30
2022-10-28T10:38:57.801Z,19.50
2022-10-28T10:44:02.976Z,19.70
2022-10-28T10:49:24.829Z,19.80
2022-10-28T10:54:57.633Z,20.00
2022-10-28T11:00:23.955Z,20.10
2022-10-28T11:05:35.618Z,20.30
2022-10-28T11:11:14.666Z,20.50
2022-10-28T11:16:21.945Z,20.70
2022-10-28T11:21:47.910Z,20.90
2022-10-28T11:27:01.348Z,21.00
2022-10-28T11:32:45.166Z,21.20
2022-10-28T11:38:16.555Z,21.40
2022-10-28T11:43:29.171Z,21.60
2022-10-28T11:48:46.190Z,21.80
2022-10-28T11:54:02.871Z,22.00
2022-10-28T11:59:35.992Z,22.20
2022-10-28T12:04:51.716Z,22.40
2022-10-28T12:10:11.321Z,22.60
2022-10-28T12:15:22.972Z,22.70
2022-10-28T12:20:32.992Z,23.00
2022-10-28T12:25:41.636Z,23.10
2022-10-28T12:30:47.337Z,23.20
2022-10-28T12:35:57.900Z,23.20
2022-10-28T12:41:08.093Z,23.40
2022-10-28T12:46:21.420Z,23.50
2022-10-28T12:51:31.863Z,23.70
2022-10-28T12:57:00.683Z,23.80
2022-10-28T13:02:05.633Z,23.90
2022-10-28T13:07:43.435Z,23.90
2022-10-28T13:13:13.409Z,24.00
2022-10-28T13:18:59.327Z,24.10
2022-10-28T13:24:28.838Z,24.20
2022-10-28T13:29:52.926Z,24.30
2022-10-28T13:35:17.296Z,24.40
2022-10-28T13:41:03.768Z,24.60
2022-10-28T13:46:07.244Z,24.70
2022-10-28T13:51:32.115Z,24.80
2022-10-28T13:56:56.694Z,24.80
2022-10-28T14:02:39.690Z,24.80
2022-10-28T14:07:55.073Z,24.70
2022-10-28T14:13:02.371Z,24.60
2022-10-28T14:18:15.809Z,24.50
2022-10-28T14:23:51.989Z,24.40
2022-10-28T14:29:29.922Z,24.40
2022-10-28T14:34:44.794Z,24.30
2022-10-28T14:40:02.536Z,24.20
2022-10-28T14:45:35.717Z,24.10
2022-10-28T14:50:42.133Z,23.90
2022-10-28T14:56:07.820Z,23.80
2022-10-28T15:01:24.127Z,23.70
2022-10-28T15:06:39.375Z,23.60
2022-10-28T15:11:45.189Z,23.50
2022-10-28T15:16:50.658Z,23.30
2022-10-28T15:22:05.912Z,23.20
2022-10-28T15:27:30.748Z,23.10
2022-10-28T15:32:36.400Z,22.90
2022-10-28T15:37:39.920Z,22.70
2022-10-28T15:42:50.477Z,22.50
2022-10-28T15:47:57.119Z,22.40
2022-10-28T15:53:41.206Z,22.30
2022-10-28T15:58:46.026Z,22.10
2022-10-28T16:03:50.656Z,22.00
2022-10-28T16:09:02.797Z,21.90
2022-10-28T16:14:36.788Z,21.70
2022-10-28T16:19:44.931Z,21.60
2022-10-28T16:24:54.850Z,21.50
2022-10-28T16:29:59.276Z,21.40
2022-10-28T16:35:05.012Z,21.30
2022-10-28T16:40:24.890Z,21.20
2022-10-28T16:45:51.679Z,21.10
2022-10-28T16:50:58.761Z,21.00
2022-10-28T16:56:02.829Z,20.80
2022-10-28T17:01:06.860Z,20.70
2022-10-28T17:06:11.767Z,20.70
2022-10-28T17:11:34.971Z,20.60
2022-10-28T17:16:56.511Z,20.50
2022-10-28T17:22:02.048Z,20.40
2022-10-28T17:27:26.118Z,20.30
2022-10-28T17:32:29.869Z,20.20
2022-10-28T17:37:35.049Z,20.10
2022-10-28T17:42:39.033Z,20.00
2022-10-28T17:47:42.376Z,19.90
2022-10-28T17:52:47.037Z,19.80
2022-10-28T17:57:50.325Z,19.80
2022-10-28T18:02:57.294Z,19.70
2022-10-28T18:08:02.003Z,19.60
2022-10-28T18:13:05.376Z,19.40
2022-10-28T18:18:28.186Z,19.40
2022-10-28T18:23:32.931Z,19.30
2022-10-28T18:28:37.922Z,19.20
2022-10-28T18:33:42.043Z,19.10
2022-10-28T18:38:46.746Z,19.00
2022-10-28T18:44:11.186Z,19.00
2022-10-28T18:49:14.424Z,18.90
2022-10-28T18:54:19.147Z,18.80
2022-10-28T19:00:05.058Z,18.80
2022-10-28T19:05:03.660Z,18.70
2022-10-28T19:10:08.936Z,18.70
2022-10-28T19:15:12.324Z,18.60
2022-10-28T19:20:15.865Z,18.50
2022-10-28T19:25:20.560Z,18.50
2022-10-28T19:30:23.838Z,18.40
2022-10-28T19:35:27.467Z,18.40
2022-10-28T19:40:32.399Z,18.30
2022-10-28T19:45:35.671Z,18.20
2022-10-28T19:50:38.990Z,18.10
2022-10-28T19:55:43.660Z,18.00
2022-10-28T20:00:46.969Z,17.90
2022-10-28T20:05:50.287Z,17.80
2022-10-28T20:10:59.931Z,17.80
2022-10-28T20:16:05.556Z,17.80
2022-10-28T20:21:30.075Z,17.70
2022-10-28T20:26:36.837Z,17.70
2022-10-28T20:31:40.165Z,17.70
2022-10-28T20:36:45.029Z,17.60
2022-10-28T20:41:51.152Z,17.60
2022-10-28T20:46:55.421Z,17.50
2022-10-28T20:51:58.803Z,17.50
2022-10-28T20:57:21.608Z,17.40
2022-10-28T21:02:25.382Z,17.40
2022-10-28T21:07:28.794Z,17.40
2022-10-28T21:12:33.704Z,17.40
2022-10-28T21:17:55.535Z,17.30
2022-10-28T21:23:00.708Z,17.30
2022-10-28T21:28:05.745Z,17.20
2022-10-28T21:33:27.280Z,17.20
2022-10-28T21:38:31.509Z,17.10
2022-10-28T21:43:55.023Z,17.10
2022-10-28T21:48:58.403Z,17.10
2022-10-28T21:54:02.204Z,17.00
2022-10-28T21:59:07.034Z,17.10
2022-10-28T22:04:10.396Z,17.00
2022-10-28T22:09:34.925Z,16.90
2022-10-28T22:14:42.053Z,16.80
2022-10-28T22:19:45.710Z,16.80
2022-10-28T22:24:49.408Z,16.80
2022-10-28T22:29:54.378Z,16.80
2022-10-28T22:34:57.668Z,16.80
2022-10-28T22:40:00.975Z,16.80
2022-10-28T22:45:23.892Z,16.80
2022-10-28T22:50:27.238Z,16.80
2022-10-28T22:55:30.521Z,16.70
2022-10-28T23:00:35.189Z,16.80
2022-10-28T23:05:56.830Z,16.80
2022-10-28T23:11:01.174Z,16.80
2022-10-28T23:16:07.712Z,16.80
2022-10-28T23:21:12.846Z,16.80
2022-10-28T23:26:16.960Z,16.80
2022-10-28T23:31:40.102Z,16.80
2022-10-28T23:36:43.402Z,16.70
2022-10-28T23:42:05.256Z,16.70
2022-10-28T23:47:28.043Z,16.60
2022-10-28T23:52:31.378Z,16.60
2022-10-28T23:57:34.654Z,16.60
